createdAt,value
2022-09-12T00:01:53.956Z,8.40
2022-09-12T00:04:20.921Z,6.70
2022-09-12T00:06:48.048Z,6.53
2022-09-12T00:09:15.344Z,26.83
2022-09-12T00:11:45.564Z,10.03
2022-09-12T00:14:17.250Z,11.30
2022-09-12T00:16:44.585Z,7.30
2022-09-12T00:19:12.395Z,9.50
2022-09-12T00:21:40.684Z,9.00
2022-09-12T00:24:08.696Z,7.83
2022-09-12T00:26:36.119Z,11.33
2022-09-12T00:29:03.482Z,9.03
2022-09-12T00:31:30.610Z,8.90
2022-09-12T00:34:00.838Z,13.40
2022-09-12T00:36:29.684Z,8.40
2022-09-12T00:38:56.596Z,9.77
2022-09-12T00:41:31.070Z,10.93
2022-09-12T00:44:02.999Z,8.40
2022-09-12T00:46:42.454Z,12.40
2022-09-12T00:49:19.145Z,11.03
2022-09-12T00:52:20.706Z,12.53
2022-09-12T00:55:28.715Z,18.23
2022-09-12T00:58:08.788Z,11.00
2022-09-12T01:00:35.813Z,10.27
2022-09-12T01:03:07.921Z,11.90
2022-09-12T01:05:39.650Z,9.43
2022-09-12T01:08:07.360Z,19.07
2022-09-12T01:10:37.948Z,10.77
2022-09-12T01:13:09.919Z,16.23
2022-09-12T01:15:40.725Z,9.40
2022-09-12T01:18:16.223Z,13.07
2022-09-12T01:21:30.295Z,12.63
2022-09-12T01:24:36.534Z,10.80
2022-09-12T01:27:28.028Z,12.20
2022-09-12T01:30:32.756Z,11.63
2022-09-12T01:33:23.484Z,10.53
2022-09-12T01:36:11.882Z,9.83
2022-09-12T01:38:49.932Z,10.63
2022-09-12T01:41:50.300Z,9.07
2022-09-12T01:44:54.961Z,8.87
2022-09-12T01:47:32.249Z,19.87
2022-09-12T01:50:17.604Z,11.00
2022-09-12T01:52:59.867Z,8.60
2022-09-12T01:55:47.020Z,15.80
2022-09-12T01:58:26.288Z,9.80
2022-09-12T02:01:06.639Z,9.43
2022-09-12T02:04:02.007Z,12.50
2022-09-12T02:06:37.611Z,15.30
2022-09-12T02:09:12.578Z,12.20
2022-09-12T02:11:44.497Z,10.17
2022-09-12T02:14:17.894Z,16.13
2022-09-12T02:16:51.085Z,12.60
2022-09-12T02:19:23.432Z,11.80
2022-09-12T02:21:57.554Z,13.13
2022-09-12T02:24:32.306Z,9.93
2022-09-12T02:27:23.984Z,13.73
2022-09-12T02:29:51.267Z,11.30
2022-09-12T02:32:37.565Z,10.13
2022-09-12T02:35:10.695Z,14.63
2022-09-12T02:38:04.584Z,9.23
2022-09-12T02:40:32.918Z,8.60
2022-09-12T02:43:01.593Z,7.57
2022-09-12T02:45:29.499Z,9.87
2022-09-12T02:48:13.736Z,8.90
2022-09-12T02:50:42.035Z,14.03
2022-09-12T02:53:10.616Z,9.13
2022-09-12T02:55:40.331Z,9.20
2022-09-12T02:58:13.501Z,10.50
2022-09-12T03:01:07.831Z,9.07
2022-09-12T03:04:22.644Z,9.97
2022-09-12T03:07:31.750Z,9.97
2022-09-12T03:10:14.963Z,9.17
2022-09-12T03:13:04.137Z,10.40
2022-09-12T03:15:59.067Z,10.73
2022-09-12T03:18:44.085Z,11.27
2022-09-12T03:21:58.707Z,9.93
2022-09-12T03:24:38.104Z,11.60
2022-09-12T03:27:18.044Z,9.07
2022-09-12T03:29:47.897Z,10.03
2022-09-12T03:32:15.434Z,11.53
2022-09-12T03:34:42.309Z,9.13
2022-09-12T03:37:10.255Z,11.53
2022-09-12T03:39:37.217Z,10.30
2022-09-12T03:42:04.194Z,10.80
2022-09-12T03:44:31.074Z,11.17
2022-09-12T03:46:57.953Z,10.63
2022-09-12T03:49:24.849Z,10.50
2022-09-12T03:51:51.707Z,11.33
2022-09-12T03:54:18.588Z,10.50
2022-09-12T03:56:45.452Z,11.20
2022-09-12T03:59:12.322Z,12.77
2022-09-12T04:01:39.178Z,11.30
2022-09-12T04:04:06.074Z,16.40
2022-09-12T04:06:32.976Z,11.47
2022-09-12T04:08:59.855Z,10.00
2022-09-12T04:11:26.735Z,11.70
2022-09-12T04:13:54.204Z,12.73
2022-09-12T04:16:21.325Z,11.40
2022-09-12T04:18:48.418Z,11.90
2022-09-12T04:21:19.603Z,16.00
2022-09-12T04:23:46.490Z,12.40
2022-09-12T04:26:15.036Z,14.17
2022-09-12T04:28:41.950Z,14.00
2022-09-12T04:31:15.523Z,13.50
2022-09-12T04:33:42.536Z,12.63
2022-09-12T04:36:16.639Z,15.60
2022-09-12T04:38:45.900Z,14.53
2022-09-12T04:41:18.447Z,13.97
2022-09-12T04:43:47.046Z,13.20
2022-09-12T04:46:17.031Z,14.50
2022-09-12T04:48:44.097Z,12.97
2022-09-12T04:51:21.149Z,14.07
2022-09-12T04:53:53.878Z,12.27
2022-09-12T04:56:22.150Z,13.60
2022-09-12T04:58:49.098Z,16.10
2022-09-12T05:01:22.327Z,16.33
2022-09-12T05:03:50.639Z,23.83
2022-09-12T05:06:23.950Z,13.73
2022-09-12T05:08:52.358Z,22.53
2022-09-12T05:11:36.763Z,19.30
2022-09-12T05:14:13.881Z,24.33
2022-09-12T05:16:41.289Z,22.07
2022-09-12T05:19:09.290Z,28.70
2022-09-12T05:21:36.212Z,28.33
2022-09-12T05:24:05.386Z,121.47
2022-09-12T05:26:32.448Z,43.20
2022-09-12T05:28:59.339Z,69.90
2022-09-12T05:31:27.995Z,53.30
2022-09-12T05:33:56.133Z,108.73
2022-09-12T05:36:29.274Z,43.10
2022-09-12T05:38:57.012Z,32.87
2022-09-12T05:41:27.160Z,38.30
2022-09-12T05:43:57.003Z,91.63
2022-09-12T05:46:28.818Z,41.17
2022-09-12T05:48:57.062Z,45.80
2022-09-12T05:51:27.397Z,54.77
2022-09-12T05:53:57.671Z,50.43
2022-09-12T05:56:28.428Z,47.73
2022-09-12T05:59:04.735Z,57.07
2022-09-12T06:01:34.774Z,28.60
2022-09-12T06:04:05.317Z,17.87
2022-09-12T06:06:36.469Z,29.10
2022-09-12T06:09:05.363Z,34.10
2022-09-12T06:11:37.154Z,47.47
2022-09-12T06:14:04.991Z,30.03
2022-09-12T06:16:34.351Z,107.80
2022-09-12T06:19:06.673Z,19.40
2022-09-12T06:21:35.315Z,26.27
2022-09-12T06:24:02.623Z,45.20
2022-09-12T06:26:29.884Z,44.07
2022-09-12T06:28:59.911Z,72.33
2022-09-12T06:31:33.503Z,101.37
2022-09-12T06:34:03.457Z,78.17
2022-09-12T06:36:36.140Z,29.73
2022-09-12T06:39:16.451Z,92.23
2022-09-12T06:41:44.656Z,122.90
2022-09-12T06:44:18.303Z,39.13
2022-09-12T06:46:45.645Z,99.57
2022-09-12T06:49:12.939Z,21.87
2022-09-12T06:51:41.770Z,51.67
2022-09-12T06:54:09.940Z,41.70
2022-09-12T06:56:37.714Z,137.07
2022-09-12T06:59:04.573Z,87.67
2022-09-12T07:01:32.349Z,110.60
2022-09-12T07:04:02.991Z,61.23
2022-09-12T07:06:36.585Z,91.90
2022-09-12T07:09:06.443Z,26.40
2022-09-12T07:11:36.625Z,92.87
2022-09-12T07:14:05.686Z,29.20
2022-09-12T07:16:33.059Z,43.03
2022-09-12T07:19:02.202Z,21.87
2022-09-12T07:21:30.117Z,36.63
2022-09-12T07:23:58.117Z,34.73
2022-09-12T07:26:28.037Z,16.77
2022-09-12T07:29:12.912Z,24.03
2022-09-12T07:31:44.733Z,16.77
2022-09-12T07:34:11.636Z,20.10
2022-09-12T07:36:39.127Z,20.97
2022-09-12T07:39:06.325Z,20.00
2022-09-12T07:41:36.355Z,20.10
2022-09-12T07:44:06.585Z,31.13
2022-09-12T07:46:33.572Z,14.33
2022-09-12T07:49:01.324Z,14.07
2022-09-12T07:51:30.288Z,14.70
2022-09-12T07:53:57.595Z,12.40
2022-09-12T07:56:29.616Z,13.20
2022-09-12T07:58:57.106Z,13.17
2022-09-12T08:01:24.665Z,10.53
2022-09-12T08:03:57.256Z,12.27
2022-09-12T08:06:25.934Z,13.10
2022-09-12T08:08:55.764Z,13.27
2022-09-12T08:11:24.189Z,11.33
2022-09-12T08:13:56.156Z,13.10
2022-09-12T08:16:30.990Z,11.90
2022-09-12T08:18:58.403Z,12.40
2022-09-12T08:21:28.746Z,8.97
2022-09-12T08:23:59.073Z,9.20
2022-09-12T08:26:26.058Z,8.87
2022-09-12T08:28:53.617Z,8.20
2022-09-12T08:31:23.936Z,11.43
2022-09-12T08:33:51.808Z,8.13
2022-09-12T08:36:25.867Z,9.70
2022-09-12T08:38:59.796Z,9.20
2022-09-12T08:41:44.264Z,10.87
2022-09-12T08:44:24.482Z,8.50
2022-09-12T08:47:31.590Z,16.50
2022-09-12T08:50:10.402Z,10.97
2022-09-12T08:52:48.174Z,10.40
2022-09-12T08:55:59.232Z,9.40
2022-09-12T08:58:28.931Z,11.37
2022-09-12T09:01:24.417Z,7.00
2022-09-12T09:04:18.369Z,7.70
2022-09-12T09:07:07.753Z,7.67
2022-09-12T09:10:14.564Z,6.47
2022-09-12T09:12:57.243Z,9.30
2022-09-12T09:16:01.541Z,7.23
2022-09-12T09:18:32.297Z,8.00
2022-09-12T09:21:51.075Z,7.33
2022-09-12T09:24:22.152Z,10.00
2022-09-12T09:26:57.614Z,9.87
2022-09-12T09:29:31.247Z,9.87
2022-09-12T09:32:01.253Z,9.03
2022-09-12T09:34:31.730Z,8.70
2022-09-12T09:37:20.777Z,7.30
2022-09-12T09:40:19.897Z,10.80
2022-09-12T09:43:04.541Z,8.17
2022-09-12T09:45:31.636Z,8.70
2022-09-12T09:48:24.550Z,7.43
2022-09-12T09:50:51.863Z,8.70
2022-09-12T09:53:35.328Z,6.23
2022-09-12T09:56:33.238Z,7.63
2022-09-12T09:59:31.485Z,5.50
2022-09-12T10:02:14.772Z,5.60
2022-09-12T10:04:55.208Z,8.00
2022-09-12T10:07:23.123Z,5.73
2022-09-12T10:10:16.010Z,8.63
2022-09-12T10:12:43.538Z,5.50
2022-09-12T10:15:26.503Z,6.20
2022-09-12T10:17:55.660Z,7.00
2022-09-12T10:20:46.042Z,5.13
2022-09-12T10:23:37.640Z,6.03
2022-09-12T10:26:11.622Z,6.40
2022-09-12T10:28:39.440Z,4.37
2022-09-12T10:31:08.834Z,7.50
2022-09-12T10:33:44.488Z,4.67
2022-09-12T10:36:12.098Z,5.00
2022-09-12T10:38:39.075Z,4.60
2022-09-12T10:41:09.549Z,5.23
2022-09-12T10:43:39.618Z,7.43
2022-09-12T10:46:18.376Z,9.87
2022-09-12T10:48:50.177Z,4.83
2022-09-12T10:51:26.030Z,4.50
2022-09-12T10:54:05.830Z,5.13
2022-09-12T10:57:01.989Z,6.23
2022-09-12T11:00:15.352Z,5.73
2022-09-12T11:03:23.807Z,4.63
2022-09-12T11:06:00.545Z,4.97
2022-09-12T11:09:15.962Z,4.30
2022-09-12T11:12:08.728Z,3.90
2022-09-12T11:15:12.200Z,5.40
2022-09-12T11:17:52.011Z,4.77
2022-09-12T11:20:44.996Z,6.50
2022-09-12T11:23:17.600Z,4.73
2022-09-12T11:25:57.193Z,4.33
2022-09-12T11:28:35.742Z,5.77
2022-09-12T11:31:59.027Z,4.70
2022-09-12T11:34:53.593Z,4.10
2022-09-12T11:38:03.829Z,4.03
2022-09-12T11:40:56.612Z,5.83
2022-09-12T11:43:50.256Z,5.40
2022-09-12T11:46:36.351Z,3.93
2022-09-12T11:49:21.229Z,4.30
2022-09-12T11:51:59.278Z,4.10
2022-09-12T11:54:35.537Z,4.83
2022-09-12T11:57:48.536Z,4.60
2022-09-12T12:00:51.015Z,4.50
2022-09-12T12:03:39.520Z,4.27
2022-09-12T12:06:19.176Z,4.97
2022-09-12T12:08:47.681Z,4.70
2022-09-12T12:11:40.445Z,4.17
2022-09-12T12:14:23.189Z,5.20
2022-09-12T12:16:50.528Z,6.07
2022-09-12T12:19:17.292Z,11.20
2022-09-12T12:21:47.765Z,5.97
2022-09-12T12:24:26.705Z,7.23
2022-09-12T12:26:53.437Z,5.90
2022-09-12T12:29:20.173Z,6.23
2022-09-12T12:31:59.192Z,6.53
2022-09-12T12:34:37.264Z,5.13
2022-09-12T12:37:19.359Z,6.23
2022-09-12T12:39:47.987Z,8.33
2022-09-12T12:42:33.304Z,5.37
2022-09-12T12:45:09.010Z,7.47
2022-09-12T12:47:38.566Z,4.93
2022-09-12T12:50:11.122Z,8.03
2022-09-12T12:53:06.531Z,5.07
2022-09-12T12:55:47.603Z,5.20
2022-09-12T12:58:45.809Z,4.50
2022-09-12T13:01:19.575Z,4.50
2022-09-12T13:03:54.829Z,5.40
2022-09-12T13:07:03.506Z,5.10
2022-09-12T13:09:49.481Z,3.90
2022-09-12T13:12:24.895Z,7.50
2022-09-12T13:15:00.234Z,4.47
2022-09-12T13:17:43.543Z,4.53
2022-09-12T13:20:29.386Z,6.90
2022-09-12T13:22:57.503Z,8.33
2022-09-12T13:25:35.098Z,5.10
2022-09-12T13:28:10.691Z,5.27
2022-09-12T13:30:42.695Z,5.37
2022-09-12T13:33:24.337Z,5.70
2022-09-12T13:36:23.524Z,5.70
2022-09-12T13:39:15.911Z,5.30
2022-09-12T13:42:39.886Z,4.20
2022-09-12T13:45:13.589Z,5.70
2022-09-12T13:47:44.281Z,5.27
2022-09-12T13:50:28.395Z,4.40
2022-09-12T13:52:59.375Z,7.33
2022-09-12T13:55:33.027Z,4.97
2022-09-12T13:58:03.822Z,4.00
2022-09-12T14:00:33.218Z,5.67
2022-09-12T14:03:19.397Z,5.50
2022-09-12T14:05:55.773Z,6.87
2022-09-12T14:08:23.904Z,14.57
2022-09-12T14:10:51.285Z,4.97
2022-09-12T14:13:26.296Z,5.13
2022-09-12T14:15:56.074Z,4.70
2022-09-12T14:18:29.613Z,7.03
2022-09-12T14:21:02.036Z,5.00
2022-09-12T14:23:33.181Z,5.30
2022-09-12T14:26:06.537Z,6.30
2022-09-12T14:28:34.329Z,5.30
2022-09-12T14:31:06.902Z,6.50
2022-09-12T14:33:49.681Z,5.60
2022-09-12T14:36:34.003Z,4.87
2022-09-12T14:39:05.418Z,4.10
2022-09-12T14:41:38.997Z,4.90
2022-09-12T14:44:17.782Z,6.93
2022-09-12T14:46:44.937Z,4.90
2022-09-12T14:49:28.855Z,6.63
2022-09-12T14:52:02.451Z,9.70
2022-09-12T14:54:32.948Z,5.17
2022-09-12T14:57:07.588Z,4.20
2022-09-12T14:59:39.868Z,6.00
2022-09-12T15:02:24.608Z,5.60
2022-09-12T15:05:06.660Z,4.30
2022-09-12T15:07:39.675Z,4.17
2022-09-12T15:10:35.149Z,4.87
2022-09-12T15:13:11.934Z,3.87
2022-09-12T15:15:44.776Z,4.80
2022-09-12T15:18:12.250Z,3.70
2022-09-12T15:20:41.274Z,4.33
2022-09-12T15:23:16.116Z,3.77
2022-09-12T15:25:42.989Z,5.90
2022-09-12T15:28:18.453Z,4.20
2022-09-12T15:30:47.739Z,9.00
2022-09-12T15:33:14.776Z,5.53
2022-09-12T15:35:41.731Z,4.70
2022-09-12T15:38:08.631Z,6.90
2022-09-12T15:40:35.586Z,6.40
2022-09-12T15:43:03.113Z,4.53
2022-09-12T15:45:33.416Z,5.10
2022-09-12T15:48:02.796Z,4.67
2022-09-12T15:50:30.210Z,6.60
2022-09-12T15:52:57.633Z,4.23
2022-09-12T15:55:33.602Z,4.87
2022-09-12T15:58:04.865Z,4.53
2022-09-12T16:00:33.325Z,5.40
2022-09-12T16:03:01.012Z,6.83
2022-09-12T16:05:27.992Z,7.07
2022-09-12T16:07:55.566Z,8.73
2022-09-12T16:10:30.352Z,6.57
2022-09-12T16:12:57.851Z,5.60
2022-09-12T16:15:26.044Z,6.80
2022-09-12T16:17:53.649Z,10.70
2022-09-12T16:20:22.148Z,8.10
2022-09-12T16:22:49.325Z,10.20
2022-09-12T16:25:17.236Z,5.33
2022-09-12T16:27:44.793Z,5.57
2022-09-12T16:30:13.094Z,7.80
2022-09-12T16:32:40.063Z,4.87
2022-09-12T16:35:07.711Z,5.10
2022-09-12T16:37:34.645Z,5.50
2022-09-12T16:40:04.157Z,4.30
2022-09-12T16:42:31.626Z,5.30
2022-09-12T16:44:58.487Z,4.10
2022-09-12T16:47:25.347Z,4.90
2022-09-12T16:49:52.313Z,4.90
2022-09-12T16:52:19.419Z,5.73
2022-09-12T16:54:46.346Z,5.00
2022-09-12T16:57:13.427Z,7.30
2022-09-12T16:59:40.382Z,5.37
2022-09-12T17:02:08.294Z,4.67
2022-09-12T17:04:35.221Z,5.17
2022-09-12T17:07:02.156Z,6.30
2022-09-12T17:09:29.423Z,11.77
2022-09-12T17:11:57.197Z,10.27
2022-09-12T17:14:24.763Z,5.60
2022-09-12T17:16:52.292Z,7.93
2022-09-12T17:19:26.716Z,6.73
2022-09-12T17:21:54.298Z,8.67
2022-09-12T17:24:21.822Z,7.80
2022-09-12T17:26:49.334Z,8.83
2022-09-12T17:29:16.988Z,7.93
2022-09-12T17:31:45.063Z,5.30
2022-09-12T17:34:16.229Z,5.90
2022-09-12T17:36:44.718Z,6.20
2022-09-12T17:39:13.576Z,10.80
2022-09-12T17:41:42.599Z,5.73
2022-09-12T17:44:12.800Z,7.93
2022-09-12T17:46:40.300Z,8.53
2022-09-12T17:49:12.143Z,7.27
2022-09-12T17:51:40.578Z,6.63
2022-09-12T17:54:12.812Z,5.50
2022-09-12T17:56:40.307Z,5.60
2022-09-12T17:59:10.066Z,6.60
2022-09-12T18:01:55.210Z,20.43
2022-09-12T18:04:22.156Z,5.77
2022-09-12T18:06:49.775Z,6.70
2022-09-12T18:09:23.290Z,6.13
2022-09-12T18:11:51.505Z,5.57
2022-09-12T18:14:18.732Z,6.30
2022-09-12T18:16:46.749Z,8.50
2022-09-12T18:19:14.176Z,6.17
2022-09-12T18:21:41.224Z,8.83
2022-09-12T18:24:09.758Z,5.40
2022-09-12T18:26:37.108Z,9.00
2022-09-12T18:29:03.988Z,6.27
2022-09-12T18:31:31.368Z,10.20
2022-09-12T18:34:02.669Z,9.90
2022-09-12T18:36:30.813Z,8.27
2022-09-12T18:38:59.489Z,10.77
2022-09-12T18:41:28.802Z,9.10
2022-09-12T18:43:58.106Z,11.13
2022-09-12T18:46:26.097Z,18.43
2022-09-12T18:48:55.464Z,9.63
2022-09-12T18:51:25.794Z,8.67
2022-09-12T18:53:56.271Z,7.57
2022-09-12T18:56:32.781Z,7.23
2022-09-12T18:59:02.015Z,10.57
2022-09-12T19:01:37.489Z,10.93
2022-09-12T19:04:06.468Z,9.53
2022-09-12T19:06:37.284Z,8.67
2022-09-12T19:09:08.089Z,7.17
2022-09-12T19:11:40.759Z,10.63
2022-09-12T19:14:08.465Z,10.23
2022-09-12T19:16:35.725Z,16.87
2022-09-12T19:19:03.060Z,10.23
2022-09-12T19:21:31.828Z,10.17
2022-09-12T19:24:05.986Z,9.07
2022-09-12T19:26:33.692Z,17.80
2022-09-12T19:29:02.804Z,12.93
2022-09-12T19:31:30.399Z,13.33
2022-09-12T19:34:07.831Z,9.83
2022-09-12T19:36:50.674Z,9.53
2022-09-12T19:39:19.764Z,6.77
2022-09-12T19:41:47.441Z,11.93
2022-09-12T19:44:14.711Z,8.67
2022-09-12T19:46:41.926Z,13.73
2022-09-12T19:49:11.693Z,9.73
2022-09-12T19:51:38.787Z,7.50
2022-09-12T19:54:06.155Z,8.30
2022-09-12T19:56:33.015Z,11.20
2022-09-12T19:59:00.143Z,8.23
2022-09-12T20:01:28.510Z,14.00
2022-09-12T20:03:58.843Z,8.00
2022-09-12T20:06:26.740Z,7.13
2022-09-12T20:08:54.499Z,10.57
2022-09-12T20:11:23.609Z,8.80
2022-09-12T20:13:50.799Z,7.10
2022-09-12T20:16:22.924Z,8.23
2022-09-12T20:18:55.832Z,10.43
2022-09-12T20:21:25.783Z,8.50
2022-09-12T20:23:52.974Z,9.47
2022-09-12T20:26:20.474Z,9.67
2022-09-12T20:28:47.518Z,10.37
2022-09-12T20:31:16.755Z,13.70
2022-09-12T20:33:47.564Z,11.37
2022-09-12T20:36:19.835Z,14.00
2022-09-12T20:38:52.620Z,7.93
2022-09-12T20:41:21.271Z,9.60
2022-09-12T20:43:56.804Z,8.00
2022-09-12T20:46:26.328Z,9.90
2022-09-12T20:48:53.716Z,14.30
2022-09-12T20:51:22.108Z,8.73
2022-09-12T20:53:54.387Z,9.40
2022-09-12T20:56:22.747Z,10.07
2022-09-12T20:58:50.305Z,5.83
2022-09-12T21:01:17.375Z,6.40
2022-09-12T21:03:44.785Z,6.73
2022-09-12T21:06:13.501Z,9.80
2022-09-12T21:08:40.736Z,7.77
2022-09-12T21:11:07.819Z,15.67
2022-09-12T21:13:35.313Z,10.53
2022-09-12T21:16:08.361Z,10.93
2022-09-12T21:18:36.260Z,9.87
2022-09-12T21:21:04.332Z,13.10
2022-09-12T21:23:31.627Z,12.50
2022-09-12T21:26:02.269Z,12.80
2022-09-12T21:28:29.584Z,17.40
2022-09-12T21:30:56.546Z,11.70
2022-09-12T21:33:23.870Z,16.93
2022-09-12T21:35:51.198Z,17.50
2022-09-12T21:38:19.265Z,12.13
2022-09-12T21:40:47.056Z,9.20
2022-09-12T21:43:14.553Z,7.13
2022-09-12T21:45:41.418Z,6.40
2022-09-12T21:48:08.286Z,9.53
2022-09-12T21:50:35.527Z,8.70
2022-09-12T21:53:02.408Z,7.20
2022-09-12T21:55:29.355Z,7.70
2022-09-12T21:57:56.548Z,6.67
2022-09-12T22:00:24.130Z,6.93
2022-09-12T22:02:51.002Z,8.63
2022-09-12T22:05:20.329Z,7.77
2022-09-12T22:07:47.195Z,14.40
2022-09-12T22:10:14.074Z,22.67
2022-09-12T22:12:45.965Z,12.27
2022-09-12T22:15:38.970Z,7.40
2022-09-12T22:18:01.196Z,7.70
2022-09-12T22:20:28.183Z,8.30
2022-09-12T22:23:13.858Z,6.13
2022-09-12T22:25:40.896Z,8.40
2022-09-12T22:28:07.791Z,8.10
2022-09-12T22:30:35.352Z,7.93
2022-09-12T22:33:02.215Z,6.90
2022-09-12T22:35:29.099Z,7.20
2022-09-12T22:37:55.974Z,7.43
2022-09-12T22:40:22.901Z,8.23
2022-09-12T22:42:52.874Z,7.30
2022-09-12T22:45:20.038Z,5.50
2022-09-12T22:47:47.112Z,6.53
2022-09-12T22:50:14.197Z,5.30
2022-09-12T22:52:41.580Z,6.37
2022-09-12T22:55:09.096Z,5.70
2022-09-12T22:57:36.003Z,6.17
2022-09-12T23:00:07.881Z,5.80
2022-09-12T23:02:34.923Z,6.60
2022-09-12T23:05:02.592Z,7.47
2022-09-12T23:07:30.413Z,6.43
2022-09-12T23:09:57.282Z,13.30
2022-09-12T23:12:24.160Z,7.07
2022-09-12T23:14:51.038Z,5.80
2022-09-12T23:17:17.928Z,9.77
2022-09-12T23:19:45.470Z,6.33
2022-09-12T23:22:12.351Z,5.83
2022-09-12T23:24:39.211Z,5.90
2022-09-12T23:27:06.201Z,6.23
2022-09-12T23:29:35.220Z,6.00
2022-09-12T23:32:04.129Z,7.30
2022-09-12T23:34:31.048Z,5.97
2022-09-12T23:36:57.924Z,5.63
2022-09-12T23:39:24.806Z,5.63
2022-09-12T23:41:52.043Z,8.10
2022-09-12T23:44:18.916Z,4.73
2022-09-12T23:46:45.791Z,7.73
2022-09-12T23:49:12.685Z,6.87
2022-09-12T23:51:39.651Z,5.47
2022-09-12T23:54:06.598Z,6.00
2022-09-12T23:56:33.485Z,7.67
2022-09-12T23:59:00.343Z,5.33
